createdAt,value
2022-08-24T00:02:24.162Z,24.06
2022-08-24T00:04:50.980Z,24.04
2022-08-24T00:07:27.404Z,24.03
2022-08-24T00:09:54.150Z,24.02
2022-08-24T00:12:20.514Z,24.03
2022-08-24T00:14:46.889Z,24.04
2022-08-24T00:17:15.750Z,24.03
2022-08-24T00:19:42.398Z,24.04
2022-08-24T00:22:09.346Z,24.03
2022-08-24T00:24:35.971Z,24.01
2022-08-24T00:27:02.353Z,24.02
2022-08-24T00:29:28.721Z,24.00
2022-08-24T00:31:55.144Z,23.99
2022-08-24T00:34:21.733Z,23.98
2022-08-24T00:36:48.094Z,23.96
2022-08-24T00:39:14.470Z,23.98
2022-08-24T00:41:44.510Z,23.97
2022-08-24T00:44:11.499Z,23.97
2022-08-24T00:46:44.649Z,23.95
2022-08-24T00:49:13.877Z,23.94
2022-08-24T00:51:42.949Z,23.95
2022-08-24T00:54:11.255Z,23.95
2022-08-24T00:56:49.815Z,23.95
2022-08-24T00:59:24.024Z,23.94
2022-08-24T01:01:50.511Z,23.92
2022-08-24T01:04:18.378Z,23.93
2022-08-24T01:06:45.463Z,23.95
2022-08-24T01:09:11.841Z,23.93
2022-08-24T01:11:38.298Z,23.89
2022-08-24T01:14:04.705Z,23.91
2022-08-24T01:16:50.094Z,23.92
2022-08-24T01:19:29.418Z,23.91
2022-08-24T01:22:06.916Z,23.91
2022-08-24T01:24:35.369Z,23.90
2022-08-24T01:27:01.814Z,23.91
2022-08-24T01:29:29.136Z,23.90
2022-08-24T01:31:57.472Z,23.90
2022-08-24T01:34:23.845Z,23.90
2022-08-24T01:36:51.375Z,23.89
2022-08-24T01:39:21.060Z,23.89
2022-08-24T01:41:48.310Z,23.86
2022-08-24T01:44:14.690Z,23.86
2022-08-24T01:46:44.884Z,23.88
2022-08-24T01:49:11.497Z,23.87
2022-08-24T01:51:38.732Z,23.85
2022-08-24T01:54:05.743Z,23.85
2022-08-24T01:56:32.948Z,23.82
2022-08-24T01:58:59.740Z,23.83
2022-08-24T02:01:26.432Z,23.85
2022-08-24T02:03:52.967Z,23.82
2022-08-24T02:06:20.838Z,23.82
2022-08-24T02:08:47.422Z,23.83
2022-08-24T02:11:15.040Z,23.83
2022-08-24T02:13:41.476Z,23.82
2022-08-24T02:16:07.878Z,23.82
2022-08-24T02:18:35.106Z,23.82
2022-08-24T02:21:02.207Z,23.82
2022-08-24T02:23:28.797Z,23.79
2022-08-24T02:25:55.441Z,23.78
2022-08-24T02:28:21.810Z,23.81
2022-08-24T02:30:48.267Z,23.80
2022-08-24T02:33:14.757Z,23.79
2022-08-24T02:35:42.099Z,23.79
2022-08-24T02:38:09.947Z,23.78
2022-08-24T02:40:37.727Z,23.79
2022-08-24T02:43:05.099Z,23.76
2022-08-24T02:45:32.075Z,23.77
2022-08-24T02:47:59.070Z,23.76
2022-08-24T02:50:26.573Z,23.75
2022-08-24T02:52:54.280Z,23.75
2022-08-24T02:55:21.885Z,23.77
2022-08-24T02:57:51.301Z,23.76
2022-08-24T03:00:18.897Z,23.74
2022-08-24T03:02:50.128Z,23.73
2022-08-24T03:05:17.189Z,23.75
2022-08-24T03:07:44.437Z,23.73
2022-08-24T03:10:10.877Z,23.74
2022-08-24T03:12:37.380Z,23.74
2022-08-24T03:15:04.819Z,23.74
2022-08-24T03:17:33.514Z,23.73
2022-08-24T03:20:00.531Z,23.72
2022-08-24T03:22:28.363Z,23.73
2022-08-24T03:24:54.746Z,23.71
2022-08-24T03:27:21.433Z,23.71
2022-08-24T03:29:47.839Z,23.77
2022-08-24T03:32:16.490Z,23.73
2022-08-24T03:34:43.103Z,23.69
2022-08-24T03:37:09.490Z,23.72
2022-08-24T03:39:35.882Z,23.73
2022-08-24T03:42:02.250Z,23.73
2022-08-24T03:44:28.656Z,23.74
2022-08-24T03:46:55.234Z,23.75
2022-08-24T03:49:23.555Z,23.74
2022-08-24T03:51:50.248Z,23.73
2022-08-24T03:54:19.794Z,23.74
2022-08-24T03:56:46.528Z,23.75
2022-08-24T03:59:16.606Z,23.76
2022-08-24T04:01:46.238Z,23.74
2022-08-24T04:04:14.318Z,23.72
2022-08-24T04:06:44.268Z,23.72
2022-08-24T04:09:11.666Z,23.74
2022-08-24T04:11:41.423Z,23.75
2022-08-24T04:14:08.717Z,23.75
2022-08-24T04:16:51.700Z,23.74
2022-08-24T04:19:29.704Z,23.73
2022-08-24T04:22:00.608Z,23.73
2022-08-24T04:24:26.994Z,23.73
2022-08-24T04:26:53.481Z,23.73
2022-08-24T04:29:20.339Z,23.71
2022-08-24T04:31:50.971Z,23.75
2022-08-24T04:34:18.339Z,23.76
2022-08-24T04:36:45.171Z,23.74
2022-08-24T04:39:12.178Z,23.74
2022-08-24T04:41:54.641Z,23.76
2022-08-24T04:44:21.364Z,23.76
2022-08-24T04:46:47.739Z,23.76
2022-08-24T04:49:14.241Z,23.77
2022-08-24T04:51:40.633Z,23.69
2022-08-24T04:54:08.368Z,23.58
2022-08-24T04:56:34.859Z,23.65
2022-08-24T04:59:01.277Z,23.63
2022-08-24T05:01:29.296Z,23.64
2022-08-24T05:03:56.751Z,23.48
2022-08-24T05:06:23.867Z,23.27
2022-08-24T05:08:50.274Z,23.23
2022-08-24T05:11:17.377Z,23.18
2022-08-24T05:13:44.584Z,23.20
2022-08-24T05:16:12.125Z,23.29
2022-08-24T05:18:39.066Z,23.42
2022-08-24T05:21:09.309Z,23.49
2022-08-24T05:23:36.187Z,23.55
2022-08-24T05:26:10.219Z,23.56
2022-08-24T05:28:37.265Z,23.60
2022-08-24T05:31:10.238Z,23.60
2022-08-24T05:33:37.160Z,23.63
2022-08-24T05:36:04.121Z,23.64
2022-08-24T05:38:31.901Z,23.66
2022-08-24T05:40:58.315Z,23.66
2022-08-24T05:43:26.766Z,23.67
2022-08-24T05:45:54.769Z,23.66
2022-08-24T05:48:21.138Z,23.66
2022-08-24T05:51:05.548Z,23.68
2022-08-24T05:53:34.562Z,23.68
2022-08-24T05:56:02.997Z,23.68
2022-08-24T05:58:31.058Z,23.67
2022-08-24T06:01:05.226Z,23.68
2022-08-24T06:03:31.682Z,23.67
2022-08-24T06:05:58.085Z,23.67
2022-08-24T06:08:24.557Z,23.67
2022-08-24T06:10:50.930Z,23.67
2022-08-24T06:13:18.031Z,23.67
2022-08-24T06:15:59.378Z,23.67
2022-08-24T06:18:30.890Z,23.67
2022-08-24T06:20:57.890Z,23.67
2022-08-24T06:23:24.397Z,23.68
2022-08-24T06:26:20.208Z,23.67
2022-08-24T06:28:49.409Z,23.69
2022-08-24T06:31:16.282Z,23.68
2022-08-24T06:33:42.712Z,23.68
2022-08-24T06:36:09.176Z,23.68
2022-08-24T06:38:35.559Z,23.69
2022-08-24T06:41:04.522Z,23.69
2022-08-24T06:43:31.606Z,23.69
2022-08-24T06:46:01.684Z,23.69
2022-08-24T06:48:32.649Z,23.69
2022-08-24T06:50:59.314Z,23.69
2022-08-24T06:53:26.475Z,23.71
2022-08-24T06:55:55.659Z,23.70
2022-08-24T06:58:22.053Z,23.70
2022-08-24T07:00:49.010Z,23.70
2022-08-24T07:03:17.470Z,23.71
2022-08-24T07:05:52.679Z,23.71
2022-08-24T07:08:39.321Z,23.72
2022-08-24T07:11:08.088Z,23.73
2022-08-24T07:13:34.459Z,23.73
2022-08-24T07:16:00.972Z,23.74
2022-08-24T07:18:28.788Z,23.75
2022-08-24T07:20:55.172Z,23.75
2022-08-24T07:23:42.310Z,23.77
2022-08-24T07:26:21.736Z,23.76
2022-08-24T07:28:50.936Z,23.77
2022-08-24T07:31:17.653Z,23.75
2022-08-24T07:33:54.727Z,23.75
2022-08-24T07:36:22.500Z,23.75
2022-08-24T07:38:49.545Z,23.77
2022-08-24T07:41:38.168Z,23.77
2022-08-24T07:44:02.267Z,23.78
2022-08-24T07:46:28.935Z,23.79
2022-08-24T07:49:11.707Z,23.78
2022-08-24T07:51:39.287Z,23.79
2022-08-24T07:54:13.188Z,23.78
2022-08-24T07:56:42.346Z,23.79
2022-08-24T07:59:13.055Z,23.80
2022-08-24T08:01:39.896Z,23.79
2022-08-24T08:04:06.413Z,23.80
2022-08-24T08:06:32.779Z,23.81
2022-08-24T08:09:02.908Z,23.80
2022-08-24T08:11:29.580Z,23.80
2022-08-24T08:13:55.959Z,23.80
2022-08-24T08:16:23.670Z,23.81
2022-08-24T08:18:56.426Z,23.81
2022-08-24T08:21:50.784Z,23.81
2022-08-24T08:24:18.062Z,23.81
2022-08-24T08:26:51.263Z,23.82
2022-08-24T08:29:35.870Z,23.82
2022-08-24T08:32:02.257Z,23.83
2022-08-24T08:34:28.785Z,23.82
2022-08-24T08:36:56.265Z,23.83
2022-08-24T08:39:23.004Z,23.85
2022-08-24T08:41:56.981Z,23.84
2022-08-24T08:44:35.498Z,23.85
2022-08-24T08:47:02.038Z,23.86
2022-08-24T08:49:50.964Z,23.87
2022-08-24T08:52:36.852Z,23.87
2022-08-24T08:55:06.105Z,23.88
2022-08-24T08:57:39.733Z,23.88
2022-08-24T09:00:15.841Z,23.89
2022-08-24T09:02:57.950Z,23.89
2022-08-24T09:05:43.790Z,23.90
2022-08-24T09:08:24.055Z,23.90
2022-08-24T09:11:06.051Z,23.91
2022-08-24T09:13:51.332Z,23.90
2022-08-24T09:16:36.067Z,23.91
2022-08-24T09:19:15.093Z,23.91
2022-08-24T09:21:45.458Z,23.92
2022-08-24T09:24:34.321Z,23.92
2022-08-24T09:27:16.257Z,23.93
2022-08-24T09:29:46.126Z,23.94
2022-08-24T09:32:34.359Z,23.94
2022-08-24T09:35:01.772Z,23.94
2022-08-24T09:37:46.881Z,23.94
2022-08-24T09:40:23.857Z,23.95
2022-08-24T09:43:08.776Z,23.95
2022-08-24T09:45:44.444Z,23.96
2022-08-24T09:48:30.729Z,23.95
2022-08-24T09:51:13.274Z,23.96
2022-08-24T09:53:45.790Z,23.96
2022-08-24T09:56:27.925Z,23.96
2022-08-24T09:59:00.977Z,23.97
2022-08-24T10:01:31.092Z,23.99
2022-08-24T10:04:08.523Z,23.98
2022-08-24T10:06:54.283Z,23.99
2022-08-24T10:09:39.385Z,23.99
2022-08-24T10:12:05.780Z,23.99
2022-08-24T10:14:39.359Z,23.99
2022-08-24T10:17:19.034Z,24.00
2022-08-24T10:20:00.362Z,23.99
2022-08-24T10:23:05.348Z,24.01
2022-08-24T10:25:49.918Z,24.01
2022-08-24T10:28:35.346Z,24.02
2022-08-24T10:31:13.105Z,24.02
2022-08-24T10:33:52.015Z,24.01
2022-08-24T10:36:31.459Z,24.01
2022-08-24T10:39:28.611Z,24.00
2022-08-24T10:42:11.293Z,24.01
2022-08-24T10:44:41.324Z,24.01
2022-08-24T10:47:21.044Z,24.02
2022-08-24T10:49:56.220Z,24.02
2022-08-24T10:52:32.331Z,24.04
2022-08-24T10:55:11.499Z,24.02
2022-08-24T10:57:39.678Z,24.02
2022-08-24T11:00:07.052Z,24.02
2022-08-24T11:02:36.946Z,24.03
2022-08-24T11:05:05.785Z,24.04
2022-08-24T11:07:32.219Z,24.04
2022-08-24T11:10:00.048Z,24.05
2022-08-24T11:12:27.877Z,24.05
2022-08-24T11:14:54.980Z,24.04
2022-08-24T11:17:21.623Z,24.06
2022-08-24T11:19:48.487Z,24.07
2022-08-24T11:22:27.567Z,24.06
2022-08-24T11:24:54.237Z,24.06
2022-08-24T11:27:26.398Z,24.07
2022-08-24T11:29:52.687Z,24.08
2022-08-24T11:32:25.846Z,24.08
2022-08-24T11:34:52.212Z,24.09
2022-08-24T11:37:24.003Z,24.09
2022-08-24T11:39:51.408Z,24.08
2022-08-24T11:42:39.917Z,24.08
2022-08-24T11:45:10.310Z,24.09
2022-08-24T11:47:59.869Z,24.09
2022-08-24T11:50:34.524Z,24.09
2022-08-24T11:53:03.773Z,24.10
2022-08-24T11:56:00.232Z,24.11
2022-08-24T11:58:45.889Z,24.12
2022-08-24T12:01:14.160Z,24.11
2022-08-24T12:03:51.900Z,24.12
2022-08-24T12:06:33.445Z,24.10
2022-08-24T12:09:26.630Z,24.12
2022-08-24T12:12:07.982Z,24.14
2022-08-24T12:14:41.150Z,24.16
2022-08-24T12:17:18.876Z,24.17
2022-08-24T12:19:49.071Z,24.15
2022-08-24T12:22:15.438Z,24.16
2022-08-24T12:24:46.146Z,24.17
2022-08-24T12:27:13.080Z,24.17
2022-08-24T12:29:51.417Z,24.18
2022-08-24T12:32:17.713Z,24.18
2022-08-24T12:34:49.679Z,24.18
2022-08-24T12:37:21.725Z,24.17
2022-08-24T12:40:00.259Z,24.19
2022-08-24T12:42:40.583Z,24.17
2022-08-24T12:45:14.132Z,24.20
2022-08-24T12:47:46.508Z,24.20
2022-08-24T12:50:15.508Z,24.22
2022-08-24T12:52:49.159Z,24.24
2022-08-24T12:55:20.900Z,24.22
2022-08-24T12:57:57.761Z,24.23
2022-08-24T13:00:37.901Z,24.25
2022-08-24T13:03:08.284Z,24.28
2022-08-24T13:05:39.026Z,24.29
2022-08-24T13:08:28.348Z,24.30
2022-08-24T13:10:59.914Z,24.30
2022-08-24T13:13:39.590Z,24.32
2022-08-24T13:16:08.019Z,24.35
2022-08-24T13:19:00.820Z,24.35
2022-08-24T13:21:34.593Z,24.36
2022-08-24T13:24:19.877Z,24.37
2022-08-24T13:26:46.306Z,24.38
2022-08-24T13:29:13.941Z,24.39
2022-08-24T13:31:43.384Z,24.38
2022-08-24T13:34:10.027Z,24.38
2022-08-24T13:36:45.492Z,24.39
2022-08-24T13:39:12.021Z,24.39
2022-08-24T13:41:49.466Z,24.42
2022-08-24T13:44:19.166Z,24.40
2022-08-24T13:47:08.618Z,24.40
2022-08-24T13:49:53.129Z,24.39
2022-08-24T13:52:22.387Z,24.40
2022-08-24T13:54:53.251Z,24.37
2022-08-24T13:57:24.823Z,24.39
2022-08-24T13:59:51.098Z,24.41
2022-08-24T14:02:17.367Z,24.42
2022-08-24T14:04:47.099Z,24.43
2022-08-24T14:07:19.087Z,24.44
2022-08-24T14:10:00.369Z,24.42
2022-08-24T14:12:29.787Z,24.45
2022-08-24T14:15:06.742Z,24.48
2022-08-24T14:17:55.076Z,24.48
2022-08-24T14:20:43.271Z,24.48
2022-08-24T14:23:18.745Z,24.51
2022-08-24T14:25:45.107Z,24.51
2022-08-24T14:28:25.069Z,24.52
2022-08-24T14:31:12.770Z,24.53
2022-08-24T14:33:43.847Z,24.51
2022-08-24T14:36:15.176Z,24.53
2022-08-24T14:38:46.300Z,24.54
2022-08-24T14:41:16.824Z,24.54
2022-08-24T14:43:55.655Z,24.57
2022-08-24T14:46:40.879Z,24.55
2022-08-24T14:49:16.607Z,24.57
2022-08-24T14:51:57.254Z,24.60
2022-08-24T14:54:23.551Z,24.58
2022-08-24T14:57:08.319Z,24.60
2022-08-24T14:59:43.034Z,24.64
2022-08-24T15:02:28.532Z,24.63
2022-08-24T15:05:14.084Z,24.66
2022-08-24T15:07:40.562Z,24.67
2022-08-24T15:10:11.454Z,24.69
2022-08-24T15:12:39.149Z,24.68
2022-08-24T15:15:10.334Z,24.67
2022-08-24T15:17:41.467Z,24.65
2022-08-24T15:20:26.274Z,24.67
2022-08-24T15:22:55.156Z,24.70
2022-08-24T15:25:39.799Z,24.71
2022-08-24T15:28:07.933Z,24.70
2022-08-24T15:30:34.890Z,24.70
2022-08-24T15:33:04.414Z,24.71
2022-08-24T15:35:32.267Z,24.69
2022-08-24T15:38:12.853Z,24.70
2022-08-24T15:40:39.285Z,24.70
2022-08-24T15:43:11.688Z,24.72
2022-08-24T15:45:38.742Z,24.70
2022-08-24T15:48:05.621Z,24.71
2022-08-24T15:50:33.692Z,24.72
2022-08-24T15:53:00.104Z,24.73
2022-08-24T15:55:28.067Z,24.71
2022-08-24T15:57:54.452Z,24.72
2022-08-24T16:00:44.449Z,24.72
2022-08-24T16:03:24.937Z,24.73
2022-08-24T16:05:52.037Z,24.72
2022-08-24T16:08:18.445Z,24.73
2022-08-24T16:10:44.740Z,24.72
2022-08-24T16:13:20.524Z,24.72
2022-08-24T16:15:48.068Z,24.74
2022-08-24T16:18:14.725Z,24.73
2022-08-24T16:20:41.084Z,24.72
2022-08-24T16:23:09.019Z,24.72
2022-08-24T16:25:39.838Z,24.73
2022-08-24T16:28:12.454Z,24.74
2022-08-24T16:30:42.083Z,24.74
2022-08-24T16:33:08.461Z,24.73
2022-08-24T16:35:34.809Z,24.73
2022-08-24T16:38:01.249Z,24.75
2022-08-24T16:40:27.994Z,24.76
2022-08-24T16:42:55.449Z,24.74
2022-08-24T16:45:21.889Z,24.74
2022-08-24T16:47:48.306Z,24.76
2022-08-24T16:50:27.513Z,24.76
2022-08-24T16:52:54.047Z,24.76
2022-08-24T16:55:21.066Z,24.76
2022-08-24T16:57:48.152Z,24.76
2022-08-24T17:00:16.105Z,24.76
2022-08-24T17:02:42.784Z,24.76
2022-08-24T17:05:09.250Z,24.77
2022-08-24T17:07:35.625Z,24.84
2022-08-24T17:10:02.694Z,24.82
2022-08-24T17:12:31.120Z,24.79
2022-08-24T17:14:58.670Z,24.79
2022-08-24T17:17:25.038Z,24.80
2022-08-24T17:19:53.018Z,24.78
2022-08-24T17:22:19.602Z,24.79
2022-08-24T17:24:45.955Z,24.79
2022-08-24T17:27:18.193Z,24.80
2022-08-24T17:29:54.211Z,24.82
2022-08-24T17:32:20.577Z,24.80
2022-08-24T17:34:46.976Z,24.80
2022-08-24T17:37:13.349Z,24.81
2022-08-24T17:39:39.715Z,24.81
2022-08-24T17:42:20.975Z,24.83
2022-08-24T17:44:52.651Z,24.83
2022-08-24T17:47:19.006Z,24.83
2022-08-24T17:49:46.843Z,24.84
2022-08-24T17:52:13.405Z,24.84
2022-08-24T17:54:39.766Z,24.84
2022-08-24T17:57:06.125Z,24.85
2022-08-24T17:59:34.712Z,24.85
2022-08-24T18:02:05.054Z,24.85
2022-08-24T18:04:31.809Z,24.85
2022-08-24T18:06:59.168Z,24.86
2022-08-24T18:09:37.453Z,24.86
2022-08-24T18:12:06.797Z,24.86
2022-08-24T18:14:34.477Z,24.87
2022-08-24T18:17:08.621Z,24.88
2022-08-24T18:19:35.163Z,24.87
2022-08-24T18:22:03.855Z,24.88
2022-08-24T18:24:33.324Z,24.90
2022-08-24T18:27:10.357Z,24.91
2022-08-24T18:29:37.067Z,24.89
2022-08-24T18:32:03.716Z,24.89
2022-08-24T18:34:31.131Z,24.90
2022-08-24T18:36:57.489Z,24.90
2022-08-24T18:39:23.875Z,24.91
2022-08-24T18:41:50.248Z,24.92
2022-08-24T18:44:17.590Z,24.96
2022-08-24T18:46:43.978Z,24.96
2022-08-24T18:49:10.343Z,24.96
2022-08-24T18:51:37.199Z,24.97
2022-08-24T18:54:05.286Z,24.97
2022-08-24T18:56:31.656Z,24.97
2022-08-24T18:58:58.134Z,24.95
2022-08-24T19:01:24.945Z,24.92
2022-08-24T19:03:51.357Z,24.92
2022-08-24T19:06:17.729Z,24.88
2022-08-24T19:08:44.090Z,24.90
2022-08-24T19:11:11.375Z,24.91
2022-08-24T19:13:38.758Z,24.92
2022-08-24T19:16:05.124Z,24.91
2022-08-24T19:18:31.497Z,24.91
2022-08-24T19:21:00.791Z,24.91
2022-08-24T19:23:27.883Z,24.90
2022-08-24T19:25:54.608Z,24.90
2022-08-24T19:28:21.394Z,24.90
2022-08-24T19:30:48.893Z,24.89
2022-08-24T19:33:16.954Z,24.87
2022-08-24T19:35:43.297Z,24.87
2022-08-24T19:38:09.649Z,24.87
2022-08-24T19:40:36.150Z,24.85
2022-08-24T19:43:05.746Z,24.86
2022-08-24T19:45:53.425Z,24.86
2022-08-24T19:48:20.020Z,24.86
2022-08-24T19:50:46.384Z,24.85
2022-08-24T19:53:12.917Z,24.84
2022-08-24T19:55:39.323Z,24.84
2022-08-24T19:58:06.849Z,24.84
2022-08-24T20:00:37.073Z,24.83
2022-08-24T20:03:05.147Z,24.83
2022-08-24T20:05:32.087Z,24.83
2022-08-24T20:07:58.467Z,24.82
2022-08-24T20:10:24.835Z,24.81
2022-08-24T20:12:51.210Z,24.82
2022-08-24T20:15:17.780Z,24.81
2022-08-24T20:17:44.142Z,24.82
2022-08-24T20:20:10.800Z,24.81
2022-08-24T20:22:44.383Z,24.81
2022-08-24T20:25:10.737Z,24.81
2022-08-24T20:27:37.201Z,24.81
2022-08-24T20:30:03.706Z,24.81
2022-08-24T20:32:31.020Z,24.80
2022-08-24T20:34:57.759Z,24.81
2022-08-24T20:37:27.410Z,24.80
2022-08-24T20:39:55.355Z,24.79
2022-08-24T20:42:25.364Z,24.79
2022-08-24T20:44:51.722Z,24.79
2022-08-24T20:47:18.145Z,24.79
2022-08-24T20:49:44.561Z,24.80
2022-08-24T20:52:10.929Z,24.79
2022-08-24T20:54:39.595Z,24.80
2022-08-24T20:57:06.648Z,24.78
2022-08-24T20:59:34.218Z,24.78
2022-08-24T21:02:01.198Z,24.78
2022-08-24T21:04:27.557Z,24.77
2022-08-24T21:06:55.201Z,24.78
2022-08-24T21:09:21.595Z,24.77
2022-08-24T21:11:48.268Z,24.77
2022-08-24T21:14:14.658Z,24.75
2022-08-24T21:16:41.364Z,24.75
2022-08-24T21:19:08.201Z,24.73
2022-08-24T21:21:34.726Z,24.73
2022-08-24T21:24:01.427Z,24.72
2022-08-24T21:26:27.865Z,24.72
2022-08-24T21:28:55.689Z,24.72
2022-08-24T21:31:22.077Z,24.72
2022-08-24T21:34:07.008Z,24.73
2022-08-24T21:36:33.375Z,24.72
2022-08-24T21:38:59.888Z,24.72
2022-08-24T21:41:29.253Z,24.73
2022-08-24T21:43:55.789Z,24.74
2022-08-24T21:46:28.472Z,24.75
2022-08-24T21:48:54.870Z,24.74
2022-08-24T21:51:21.221Z,24.73
2022-08-24T21:53:48.012Z,24.74
2022-08-24T21:56:16.307Z,24.74
2022-08-24T21:58:46.270Z,24.73
2022-08-24T22:01:12.641Z,24.73
2022-08-24T22:03:40.229Z,24.72
2022-08-24T22:06:07.912Z,24.71
2022-08-24T22:08:34.525Z,24.72
2022-08-24T22:11:00.886Z,24.72
2022-08-24T22:13:27.274Z,24.72
2022-08-24T22:15:53.655Z,24.71
2022-08-24T22:18:20.078Z,24.71
2022-08-24T22:20:46.437Z,24.71
2022-08-24T22:23:12.794Z,24.71
2022-08-24T22:25:39.151Z,24.71
2022-08-24T22:28:05.542Z,24.73
2022-08-24T22:30:32.026Z,24.71
2022-08-24T22:32:59.295Z,24.71
2022-08-24T22:35:25.828Z,24.70
2022-08-24T22:37:52.186Z,24.71
2022-08-24T22:40:18.996Z,24.69
2022-08-24T22:42:45.691Z,24.70
2022-08-24T22:45:12.043Z,24.70
2022-08-24T22:47:38.415Z,24.69
2022-08-24T22:50:05.125Z,24.69
2022-08-24T22:52:31.489Z,24.67
2022-08-24T22:54:57.877Z,24.67
2022-08-24T22:57:24.505Z,24.67
2022-08-24T22:59:53.190Z,24.67
2022-08-24T23:02:19.867Z,24.67
2022-08-24T23:04:46.949Z,24.68
2022-08-24T23:07:13.324Z,24.67
2022-08-24T23:09:44.995Z,24.66
2022-08-24T23:12:12.038Z,24.65
2022-08-24T23:14:38.405Z,24.66
2022-08-24T23:17:04.767Z,24.65
2022-08-24T23:19:50.026Z,24.63
2022-08-24T23:22:16.893Z,24.63
2022-08-24T23:24:43.737Z,24.65
2022-08-24T23:27:10.359Z,24.64
2022-08-24T23:29:36.772Z,24.63
2022-08-24T23:32:03.229Z,24.62
2022-08-24T23:34:29.578Z,24.61
2022-08-24T23:36:55.958Z,24.61
2022-08-24T23:39:22.310Z,24.62
2022-08-24T23:41:48.751Z,24.62
2022-08-24T23:44:16.384Z,24.61
2022-08-24T23:46:43.161Z,24.60
2022-08-24T23:49:09.568Z,24.59
2022-08-24T23:51:36.366Z,24.59
2022-08-24T23:54:02.799Z,24.57
2022-08-24T23:56:31.719Z,24.57
2022-08-24T23:58:59.123Z,24.56
